Aluksne, Latvia

4:04 AM EEST on July 31, 2015 (GMT +0300)
Aluksne lake South shore | | Change Station
CLOSE
Current Station
Personal Weather Station
Location: Alūksne, ALūKSNE MUNICIPALITY
Elevation: 594 ft
Nearby Weather Stations

Elev 594 ft 57.43 °N, 27.07 °E | Updated 14 minutes ago

Clear
Clear
52.5 °F
Feels Like 52.5 °F
N
4.0
Wind Variable Wind from SSW
Gusts 11.0 mph

Today
High -- | Low -- °F
--% Chance of Precip.
Yesterday
High -- | Low -- °F
Precip. -- in
5:05 AM 9:29 PM
Full, 100% visible
Pressure 29.62 in
Visibility -9999.0 miles
Clouds
Dew Point 51 °F
Humidity 96%
Rainfall 0.00 in
Snow Depth Not available.
UV Not available.
Pollen Not available.
Air Quality Not available.
Flu Activity Not available.
METAR ULOO 310030Z 21002MPS P6000 NSC 11/11 Q1003 R19/190065 RMK QFE748

More Conditions Fewer Conditions

Pressure 29.62 in
Visibility -9999.0 miles
Clouds
Dew Point 51 °F
Humidity 96%
Rainfall 0.00 in
Snow Depth Not available.
UV Not available.
Pollen Not available.
Air Quality Not available.
Flu Activity Not available.
METAR ULOO 310030Z 21002MPS P6000 NSC 11/11 Q1003 R19/190065 RMK QFE748

More Conditions Fewer Conditions

10-Day Weather Forecast

×

Almanac

Astronomy

Jul. 31, 2015 Rise Set
Actual Time
Civil Twilight
Nautical Twilight
Astronomical Twilight
Moon
Length of Visible Light
Length of Day
Tomorrow will be .
, % of the Moon is Illuminated

Today's Extremes

Country Highs Country Lows

Community

WunderPhotos

Upload Photos

1,842,555 photos uploaded!

WunderBlogs® & News

Nearby

Air Quality

  Air Quality AQ Index Pollutant
Not available.

Snow Depth

Station Depth Elevation

Earthquake Activity

City Distance Mag. Time & Date
Minimum magnitude displayed is 2.5.

Coastal Water Temperatures

Place Temperature

Stations

Nearby Weather Stations

Station Location Temp. Windchill Dew Point Humidity Wind Precip. Elev Updated Type